Time;durP1;ratioP1;P1;durP2;ratioP2;P2;SDS_P1;SDS_P2;PMS_P1;PMS_P2;Temp;Humidity;BMP_temperature;BMP_pressure;BME280_temperature;BME280_humidity;BME280_pressure;Samples;Min_cycle;Max_cycle;Signal;HPM_P1;HPM_P2
2021/07/03 00:01:16;;;;;;;6.7;6;;;;;;;13.55;80.91699;940.3675;;;;
2021/07/03 00:03:41;;;;;;;8.2;6;;;;;;;13.51;81.17285;940.3762;;;;
2021/07/03 00:06:06;;;;;;;8.6;6;;;;;;;13.48;81.06445;940.325;;;;
2021/07/03 00:08:31;;;;;;;8.1;6;;;;;;;13.48;81.01855;940.305;;;;
2021/07/03 00:10:59;;;;;;;8.8;6.2;;;;;;;13.46;81.32617;940.3666;;;;
2021/07/03 00:13:24;;;;;;;7.1;6.3;;;;;;;13.36;82.14648;940.3406;;;;
2021/07/03 00:15:54;;;;;;;7.2;6;;;;;;;13.37;82.125;940.3533;;;;
2021/07/03 00:20:03;;;;;;;9.2;6.2;;;;;;;13.39;81.66895;940.3709;;;;
2021/07/03 00:22:16;;;;;;;6.8;6.1;;;;;;;13.35;81.68262;940.3077;;;;
2021/07/03 00:24:42;;;;;;;6.7;6.1;;;;;;;13.33;81.76172;940.3156;;;;
2021/07/03 00:27:07;;;;;;;7.1;6.4;;;;;;;13.31;82.12402;940.3636;;;;
2021/07/03 00:29:33;;;;;;;7.4;6.2;;;;;;;13.32;82.19531;940.3605;;;;
2021/07/03 00:31:58;;;;;;;8.4;7.3;;;;;;;13.32;82.03418;940.3333;;;;
2021/07/03 00:34:24;;;;;;;8.8;6.5;;;;;;;13.38;82.44824;940.2958;;;;
2021/07/03 00:36:49;;;;;;;7.7;6.2;;;;;;;13.36;81.95117;940.2749;;;;
2021/07/03 00:39:15;;;;;;;7;6.1;;;;;;;13.31;82.29688;940.286;;;;
2021/07/03 00:41:40;;;;;;;7.1;6.4;;;;;;;13.34;81.5332;940.2853;;;;
2021/07/03 00:44:08;;;;;;;8.6;6.2;;;;;;;13.27;81.6582;940.2644;;;;
2021/07/03 00:46:51;;;;;;;7.8;6.2;;;;;;;13.17;81.89355;940.2811;;;;
2021/07/03 00:49:16;;;;;;;9.2;6.9;;;;;;;13.15;81.84277;940.2442;;;;
2021/07/03 00:51:42;;;;;;;8.2;6.4;;;;;;;13.12;82.15723;940.2322;;;;
2021/07/03 00:54:08;;;;;;;6.6;5.9;;;;;;;13.02;82.2666;940.1855;;;;
2021/07/03 00:56:33;;;;;;;7;6.3;;;;;;;12.97;82.56445;940.2067;;;;
2021/07/03 00:58:59;;;;;;;7.8;6.3;;;;;;;12.91;83.23145;940.1945;;;;
2021/07/03 01:01:24;;;;;;;7.1;6.3;;;;;;;13.01;82.78027;940.1046;;;;
2021/07/03 01:03:51;;;;;;;9.1;6.3;;;;;;;13.02;82.48535;940.2224;;;;
2021/07/03 01:06:17;;;;;;;7.7;6.4;;;;;;;13.02;82.30078;940.1631;;;;
2021/07/03 01:08:44;;;;;;;8.3;6;;;;;;;12.97;82.34863;940.1852;;;;
2021/07/03 01:11:09;;;;;;;7.4;6.6;;;;;;;12.85;82.875;940.0569;;;;
2021/07/03 01:13:38;;;;;;;6.6;5.9;;;;;;;12.87;82.83496;940.1272;;;;
2021/07/03 01:16:10;;;;;;;7.3;5.9;;;;;;;12.86;82.62598;940.1287;;;;
2021/07/03 01:18:35;;;;;;;7.5;6;;;;;;;12.85;82.73926;940.1423;;;;
2021/07/03 01:21:03;;;;;;;9;5.9;;;;;;;12.82;82.89453;940.1014;;;;
2021/07/03 01:23:28;;;;;;;7;6.1;;;;;;;12.7;83.21484;940.0944;;;;
2021/07/03 01:25:58;;;;;;;12.9;6.4;;;;;;;12.74;83.17578;940.0801;;;;
2021/07/03 01:28:26;;;;;;;8.2;5.9;;;;;;;12.64;83.8916;940.1156;;;;
2021/07/03 01:30:51;;;;;;;9.8;6.5;;;;;;;12.59;84.44434;940.0792;;;;
2021/07/03 01:33:19;;;;;;;10.5;6.4;;;;;;;12.45;84.72656;940.0666;;;;
2021/07/03 01:35:44;;;;;;;6.8;6.1;;;;;;;12.4;84.83203;940.0636;;;;
2021/07/03 01:38:09;;;;;;;8.5;6.4;;;;;;;12.39;85.00293;940.0811;;;;
2021/07/03 01:40:37;;;;;;;8;5.9;;;;;;;12.43;84.96387;940.0823;;;;
2021/07/03 01:43:06;;;;;;;8;6.4;;;;;;;12.4;85.09375;940.117;;;;
2021/07/03 01:45:39;;;;;;;8.5;6.3;;;;;;;12.4;85.10742;940.1147;;;;
2021/07/03 01:48:06;;;;;;;7.1;6;;;;;;;;;;;;;
2021/07/03 01:50:31;;;;;;;7.7;6.4;;;;;;;;;;;;;
2021/07/03 01:52:56;;;;;;;9.2;6.4;;;;;;;;;;;;;
2021/07/03 01:55:21;;;;;;;8.2;6.5;;;;;;;;;;;;;
2021/07/03 01:57:46;;;;;;;8.8;6.2;;;;;;;;;;;;;
2021/07/03 02:00:44;;;;;;;10.2;6.5;;;;;;;;;;;;;
2021/07/03 02:02:57;;;;;;;8.4;6.7;;;;;;;;;;;;;
2021/07/03 02:05:23;;;;;;;10.1;6.7;;;;;;;;;;;;;
2021/07/03 02:07:48;;;;;;;8.4;6.4;;;;;;;;;;;;;
2021/07/03 02:10:14;;;;;;;8.8;6.3;;;;;;;;;;;;;
2021/07/03 02:12:41;;;;;;;11.7;6.8;;;;;;;;;;;;;
2021/07/03 02:15:08;;;;;;;8.4;6.5;;;;;;;;;;;;;
2021/07/03 02:17:45;;;;;;;8.8;6.3;;;;;;;;;;;;;
2021/07/03 02:20:11;;;;;;;8;6.3;;;;;;;;;;;;;
2021/07/03 02:22:36;;;;;;;9.1;6.2;;;;;;;;;;;;;
2021/07/03 02:25:01;;;;;;;7.6;5.8;;;;;;;;;;;;;
2021/07/03 02:27:26;;;;;;;6.7;5.6;;;;;;;;;;;;;
2021/07/03 02:29:51;;;;;;;9.8;6.6;;;;;;;;;;;;;
2021/07/03 02:32:17;;;;;;;9.3;6.4;;;;;;;;;;;;;
2021/07/03 02:34:42;;;;;;;6.9;6;;;;;;;;;;;;;
2021/07/03 02:37:08;;;;;;;7.8;6.3;;;;;;;;;;;;;
2021/07/03 02:39:33;;;;;;;7.5;6.5;;;;;;;;;;;;;
2021/07/03 02:41:59;;;;;;;8.7;6.7;;;;;;;;;;;;;
2021/07/03 02:44:24;;;;;;;7.9;6.8;;;;;;;;;;;;;
2021/07/03 02:46:50;;;;;;;8.8;6.5;;;;;;;;;;;;;
2021/07/03 02:49:15;;;;;;;8.5;6.8;;;;;;;;;;;;;
2021/07/03 02:51:41;;;;;;;8.8;7;;;;;;;;;;;;;
2021/07/03 02:54:06;;;;;;;7.7;6.6;;;;;;;;;;;;;
2021/07/03 02:56:33;;;;;;;11;6.9;;;;;;;;;;;;;
2021/07/03 02:58:58;;;;;;;8.4;6.9;;;;;;;;;;;;;
2021/07/03 03:01:23;;;;;;;7.5;6.3;;;;;;;;;;;;;
2021/07/03 03:04:14;;;;;;;7.1;6.4;;;;;;;;;;;;;
2021/07/03 03:06:39;;;;;;;7.9;6.4;;;;;;;;;;;;;
2021/07/03 03:09:05;;;;;;;7.7;6.9;;;;;;;;;;;;;
2021/07/03 03:11:30;;;;;;;10;6.8;;;;;;;;;;;;;
2021/07/03 03:13:55;;;;;;;8;6.5;;;;;;;;;;;;;
2021/07/03 03:16:20;;;;;;;7.4;6.3;;;;;;;;;;;;;
2021/07/03 03:18:46;;;;;;;9.1;6.9;;;;;;;;;;;;;
2021/07/03 03:21:11;;;;;;;7.1;6.4;;;;;;;;;;;;;
2021/07/03 03:23:36;;;;;;;9.4;6.9;;;;;;;;;;;;;
2021/07/03 03:26:01;;;;;;;7.6;6.7;;;;;;;;;;;;;
2021/07/03 03:28:28;;;;;;;7.7;6.3;;;;;;;;;;;;;
2021/07/03 03:30:53;;;;;;;8.5;6.5;;;;;;;;;;;;;
2021/07/03 03:33:19;;;;;;;7.1;6.4;;;;;;;;;;;;;
2021/07/03 03:35:44;;;;;;;9.3;6.8;;;;;;;;;;;;;
2021/07/03 03:38:10;;;;;;;8.7;6.9;;;;;;;;;;;;;
2021/07/03 03:40:36;;;;;;;8.4;6.8;;;;;;;;;;;;;
2021/07/03 03:43:01;;;;;;;7.5;6.7;;;;;;;;;;;;;
2021/07/03 03:45:26;;;;;;;8.4;7.3;;;;;;;;;;;;;
2021/07/03 03:47:52;;;;;;;9.9;7;;;;;;;;;;;;;
2021/07/03 03:50:35;;;;;;;9.9;7.4;;;;;;;;;;;;;
2021/07/03 03:52:43;;;;;;;8.8;6.3;;;;;;;;;;;;;
2021/07/03 03:55:08;;;;;;;9.5;6.8;;;;;;;;;;;;;
2021/07/03 03:57:33;;;;;;;7.7;6.5;;;;;;;;;;;;;
2021/07/03 03:59:58;;;;;;;9.2;6.4;;;;;;;;;;;;;
2021/07/03 04:02:28;;;;;;;8.7;6.6;;;;;;;12.06;85.66992;940.0653;;;;
2021/07/03 04:04:53;;;;;;;8.9;6.8;;;;;;;12.06;85.31543;940.0605;;;;
2021/07/03 04:07:23;;;;;;;8.4;6.8;;;;;;;12.09;85.48047;940.0527;;;;
2021/07/03 04:09:51;;;;;;;8.7;6.5;;;;;;;11.98;85.49414;940.0173;;;;
2021/07/03 04:12:20;;;;;;;8.7;7.2;;;;;;;11.84;86.12012;940.1353;;;;
2021/07/03 04:14:45;;;;;;;8.5;6.6;;;;;;;11.73;86.79688;940.1091;;;;
2021/07/03 04:17:10;;;;;;;8.7;6.8;;;;;;;11.84;86.63379;940.1033;;;;
2021/07/03 04:19:40;;;;;;;9.2;7;;;;;;;11.93;86.1377;940.1336;;;;
2021/07/03 04:22:11;;;;;;;7.1;6.2;;;;;;;11.99;85.82813;940.1658;;;;
2021/07/03 04:24:42;;;;;;;9.4;6.7;;;;;;;12.14;85.53711;940.1082;;;;
2021/07/03 04:27:07;;;;;;;7.4;6.4;;;;;;;12.21;84.9082;940.1021;;;;
2021/07/03 04:29:38;;;;;;;10;6.7;;;;;;;12.29;84.67383;940.0909;;;;
2021/07/03 04:32:03;;;;;;;9.7;6.4;;;;;;;12.34;84.26953;940.1454;;;;
2021/07/03 04:34:33;;;;;;;7.9;6.5;;;;;;;12.4;84.1084;940.1003;;;;
2021/07/03 04:36:58;;;;;;;7.1;6.3;;;;;;;12.39;83.93457;940.085;;;;
2021/07/03 04:39:28;;;;;;;7.1;6.1;;;;;;;12.26;84.46191;940.0844;;;;
2021/07/03 04:41:57;;;;;;;7.4;6.6;;;;;;;12.19;85.05566;940.0733;;;;
2021/07/03 04:46:48;;;;;;;7.1;6.3;;;;;;;12.31;84.4707;940.0662;;;;
2021/07/03 04:49:18;;;;;;;7.1;6.4;;;;;;;12.39;83.72949;940.0372;;;;
2021/07/03 04:51:43;;;;;;;7.6;6.3;;;;;;;12.48;83.67871;940.0059;;;;
2021/07/03 04:54:10;;;;;;;8.2;6.2;;;;;;;12.6;83.12598;940.0552;;;;
2021/07/03 04:56:35;;;;;;;7.9;6.2;;;;;;;12.68;82.81934;940.0327;;;;
2021/07/03 04:59:03;;;;;;;6.8;6;;;;;;;12.64;82.99609;940.0309;;;;
2021/07/03 05:01:28;;;;;;;7.8;6.1;;;;;;;12.72;83.14941;939.9026;;;;
2021/07/03 05:03:54;;;;;;;9.5;6.4;;;;;;;12.78;83.24219;939.8765;;;;
2021/07/03 05:06:19;;;;;;;9.4;6.4;;;;;;;12.99;83.79883;939.8367;;;;
2021/07/03 05:12:05;;;;;;;7.5;5.2;;;;;;;15.46;72.55469;939.9113;;;;
2021/07/03 05:14:34;;;;;;;6.6;5.1;;;;;;;16.5;68.23535;939.8364;;;;
2021/07/03 05:17:01;;;;;;;6.5;4.5;;;;;;;17.43;64.76074;939.8716;;;;
2021/07/03 05:19:29;;;;;;;5.3;4.3;;;;;;;18.17;61.15234;939.8772;;;;
2021/07/03 05:21:54;;;;;;;7.5;4.7;;;;;;;18.01;61.44434;939.8917;;;;
2021/07/03 05:24:22;;;;;;;6;4.7;;;;;;;18.54;60.01563;939.7963;;;;
2021/07/03 05:26:49;;;;;;;6.4;4.4;;;;;;;19.32;57.30371;939.7996;;;;
2021/07/03 05:29:15;;;;;;;5.3;4.2;;;;;;;18.59;59.06934;939.7905;;;;
2021/07/03 05:31:43;;;;;;;4.4;4;;;;;;;18.85;58.97656;939.8346;;;;
2021/07/03 05:34:08;;;;;;;4.8;4.4;;;;;;;20.2;55.58594;939.7828;;;;
2021/07/03 05:36:34;;;;;;;5.4;4.5;;;;;;;21.06;52.71094;939.7891;;;;
2021/07/03 05:39:03;;;;;;;5.2;4.1;;;;;;;21.4;51.74609;939.7003;;;;
2021/07/03 05:41:26;;;;;;;4.8;4.3;;;;;;;19.56;55.82031;939.7117;;;;
2021/07/03 05:43:51;;;;;;;5.5;4.2;;;;;;;20.22;56.51074;939.6597;;;;
2021/07/03 05:46:16;;;;;;;4.7;4.2;;;;;;;21.27;51.42578;939.6887;;;;
2021/07/03 05:48:56;;;;;;;5.5;3.9;;;;;;;22.83;47.96582;939.6678;;;;
2021/07/03 05:51:21;;;;;;;5.6;4.2;;;;;;;22.85;47.28906;939.653;;;;
2021/07/03 05:53:46;;;;;;;4.9;4.1;;;;;;;23.53;45.62012;939.6301;;;;
2021/07/03 05:56:14;;;;;;;4;3.6;;;;;;;24.21;44.06445;939.6125;;;;
2021/07/03 05:58:39;;;;;;;4.2;3.8;;;;;;;24.48;44.51563;939.5363;;;;
2021/07/03 06:01:06;;;;;;;4.6;3.8;;;;;;;23.15;44.99219;939.5703;;;;
2021/07/03 06:03:30;;;;;;;5.6;4.3;;;;;;;23.41;47.48828;939.5688;;;;
2021/07/03 06:06:00;;;;;;;5.1;4.2;;;;;;;24.5;44.97656;939.4473;;;;
2021/07/03 06:08:25;;;;;;;4.1;3.7;;;;;;;24.83;43.90039;939.4542;;;;
2021/07/03 06:10:53;;;;;;;5.8;4;;;;;;;25.76;41.03711;939.4267;;;;
2021/07/03 06:13:21;;;;;;;5.5;3.7;;;;;;;21.97;48.03906;939.4556;;;;
2021/07/03 06:15:57;;;;;;;5.6;3.7;;;;;;;23.9;44.55078;939.4436;;;;
2021/07/03 06:18:22;;;;;;;4.2;3.6;;;;;;;24.71;43.88867;939.4176;;;;
2021/07/03 06:20:53;;;;;;;4.1;3.7;;;;;;;26.88;38.36719;939.3819;;;;
2021/07/03 06:23:20;;;;;;;4.8;4;;;;;;;25.95;40.43945;939.3801;;;;
2021/07/03 06:25:46;;;;;;;4;3.6;;;;;;;25.25;39.9043;939.3256;;;;
2021/07/03 06:28:13;;;;;;;4.8;3.5;;;;;;;26.92;40.29004;939.3503;;;;
2021/07/03 06:30:38;;;;;;;3.9;3.5;;;;;;;27.4;38.25781;939.3801;;;;
2021/07/03 06:33:06;;;;;;;3.7;3.4;;;;;;;28.16;35.81445;939.2748;;;;
2021/07/03 06:35:31;;;;;;;5.4;3.1;;;;;;;27.09;38.16016;939.3533;;;;
2021/07/03 06:37:59;;;;;;;3.4;3.1;;;;;;;28.75;35.74219;939.2963;;;;
2021/07/03 06:40:24;;;;;;;3.5;3.2;;;;;;;28.78;34.49609;939.287;;;;
2021/07/03 06:42:50;;;;;;;3.5;3.2;;;;;;;28.92;36.25586;939.282;;;;
2021/07/03 06:45:15;;;;;;;3.2;2.9;;;;;;;29.55;34.9248;939.2482;;;;
2021/07/03 06:47:40;;;;;;;4.5;2.8;;;;;;;30.78;32.16309;939.2625;;;;
2021/07/03 06:50:05;;;;;;;3.1;2.8;;;;;;;28.59;35.72949;939.2575;;;;
2021/07/03 06:52:32;;;;;;;3;2.7;;;;;;;30.11;32.01953;939.2129;;;;
2021/07/03 06:54:57;;;;;;;3.1;2.7;;;;;;;29.15;33.13086;939.2138;;;;
2021/07/03 06:57:23;;;;;;;3.2;2.7;;;;;;;28.03;34.26074;939.1699;;;;
2021/07/03 06:59:48;;;;;;;3;2.7;;;;;;;28.61;34.57813;939.1691;;;;
2021/07/03 07:02:16;;;;;;;2.9;2.7;;;;;;;30.58;31.87402;939.0229;;;;
2021/07/03 07:04:40;;;;;;;3.3;2.9;;;;;;;29.49;34.5625;939.0327;;;;
2021/07/03 07:07:07;;;;;;;3.3;2.5;;;;;;;31.69;30.05957;939.0041;;;;
2021/07/03 07:09:32;;;;;;;3.5;3.1;;;;;;;31.22;30.80664;939.0535;;;;
2021/07/03 07:11:58;;;;;;;3;2.7;;;;;;;31.81;30.06738;938.9666;;;;
2021/07/03 07:14:24;;;;;;;3.8;3;;;;;;;31.94;31.15527;938.9336;;;;
2021/07/03 07:16:50;;;;;;;4.3;2.7;;;;;;;30.81;33.07324;938.8515;;;;
2021/07/03 07:19:15;;;;;;;4.3;2.7;;;;;;;30.08;34.15332;938.8814;;;;
2021/07/03 07:21:41;;;;;;;3.2;2.7;;;;;;;32.02;31.48438;938.8535;;;;
2021/07/03 07:24:06;;;;;;;3.7;2.9;;;;;;;31.59;30.37695;938.8728;;;;
2021/07/03 07:26:33;;;;;;;4;2.9;;;;;;;29.8;30.93652;938.8162;;;;
2021/07/03 07:28:58;;;;;;;3.7;2.7;;;;;;;30.86;31.02051;938.8256;;;;
2021/07/03 07:31:28;;;;;;;3.8;2.5;;;;;;;29.8;32.2832;938.6967;;;;
2021/07/03 07:33:59;;;;;;;3.1;2.9;;;;;;;31.45;30.11621;938.6755;;;;
2021/07/03 07:36:24;;;;;;;3.1;2.7;;;;;;;32.07;28.99512;938.6694;;;;
2021/07/03 07:38:53;;;;;;;3;2.5;;;;;;;33.06;28.74512;938.7516;;;;
2021/07/03 07:41:24;;;;;;;2.7;2.5;;;;;;;33.09;26.44043;938.7023;;;;
2021/07/03 07:43:53;;;;;;;3.2;2.9;;;;;;;33.54;27.5;938.6306;;;;
2021/07/03 07:46:25;;;;;;;3.6;2.7;;;;;;;33.94;26.22559;938.5914;;;;
2021/07/03 07:48:54;;;;;;;2.9;2.7;;;;;;;32.85;27.7832;938.5672;;;;
2021/07/03 07:51:18;;;;;;;3;2.7;;;;;;;32.15;29.45508;938.5016;;;;
2021/07/03 07:53:49;;;;;;;3.7;2.9;;;;;;;32.89;27.94141;938.4358;;;;
2021/07/03 07:56:18;;;;;;;4.8;2.7;;;;;;;34.22;26.04883;938.4215;;;;
2021/07/03 08:01:13;;;;;;;3.6;3.1;;;;;;;32.6;30.19238;938.4056;;;;
2021/07/03 08:03:36;;;;;;;2.9;2.6;;;;;;;31.98;31.85254;938.3474;;;;
2021/07/03 08:06:02;;;;;;;3.7;2.9;;;;;;;32.3;31.69531;938.3447;;;;
2021/07/03 08:08:28;;;;;;;4.2;3.2;;;;;;;32.12;32.90527;938.4039;;;;
2021/07/03 08:10:56;;;;;;;3;2.7;;;;;;;32.54;31.87988;938.3948;;;;
2021/07/03 08:13:21;;;;;;;4.6;3;;;;;;;30.49;33.64746;938.2852;;;;
2021/07/03 08:15:57;;;;;;;3;2.7;;;;;;;31.22;31.75195;938.2767;;;;
2021/07/03 08:18:23;;;;;;;3.4;2.7;;;;;;;30.97;31.9375;938.2756;;;;
2021/07/03 08:20:50;;;;;;;5.2;3.4;;;;;;;31;34.46191;938.3167;;;;
2021/07/03 08:23:16;;;;;;;3.2;2.9;;;;;;;30.87;32.31348;938.1838;;;;
2021/07/03 08:25:42;;;;;;;2.9;2.6;;;;;;;30.97;34.11426;938.301;;;;
2021/07/03 08:28:09;;;;;;;3;2.7;;;;;;;31.02;33.92578;938.2562;;;;
2021/07/03 08:30:35;;;;;;;2.9;2.7;;;;;;;32.86;29.36914;938.2678;;;;
2021/07/03 08:33:03;;;;;;;4.5;3;;;;;;;30.77;32.22168;938.1609;;;;
2021/07/03 08:38:36;;;;;;;2.7;2.5;;;;;;;29.94;34.78711;938.1375;;;;
2021/07/03 08:41:01;;;;;;;2.9;2.7;;;;;;;29.75;33.34277;938.1119;;;;
2021/07/03 08:43:27;;;;;;;3;2.7;;;;;;;30.23;34.10547;938.1066;;;;
2021/07/03 08:45:55;;;;;;;4.3;2.8;;;;;;;30.74;34.70508;938.1305;;;;
2021/07/03 08:48:20;;;;;;;3.1;2.8;;;;;;;29.31;34.79785;938.0197;;;;
2021/07/03 08:50:47;;;;;;;3.3;3;;;;;;;31.49;32.86035;938.0226;;;;
2021/07/03 08:53:12;;;;;;;3.9;2.8;;;;;;;31.66;33.30273;938.0353;;;;
2021/07/03 08:55:37;;;;;;;3.4;2.8;;;;;;;31.42;32.28027;937.9777;;;;
2021/07/03 08:58:04;;;;;;;4.6;2.9;;;;;;;31.82;31.78223;937.9254;;;;
2021/07/03 09:00:30;;;;;;;3.6;2.7;;;;;;;33.35;29.70117;937.8884;;;;
2021/07/03 09:02:55;;;;;;;3.2;2.9;;;;;;;32.1;34.41504;937.9447;;;;
2021/07/03 09:05:23;;;;;;;3.3;2.9;;;;;;;31.71;34.07227;937.9107;;;;
2021/07/03 09:07:48;;;;;;;3.2;2.9;;;;;;;30.68;37.29395;937.92;;;;
2021/07/03 09:10:13;;;;;;;4;3.1;;;;;;;30.01;31.96484;937.8555;;;;
2021/07/03 09:12:38;;;;;;;5.8;3;;;;;;;30.51;36.61133;937.8724;;;;
2021/07/03 09:15:09;;;;;;;3.9;2.9;;;;;;;31.45;33.38379;937.8851;;;;
2021/07/03 09:17:37;;;;;;;4.5;2.9;;;;;;;31.69;30.14355;937.8661;;;;
2021/07/03 09:20:02;;;;;;;3.3;2.7;;;;;;;31.63;32.51074;937.8469;;;;
2021/07/03 09:22:27;;;;;;;4.2;3.5;;;;;;;29.43;36.72559;937.7523;;;;
2021/07/03 09:24:52;;;;;;;2.8;2.6;;;;;;;27.46;41.87012;937.8157;;;;
2021/07/03 09:27:18;;;;;;;4.4;3.1;;;;;;;28.18;39.61914;937.7308;;;;
2021/07/03 09:29:49;;;;;;;3.7;3.1;;;;;;;28.89;35.09961;937.6401;;;;
2021/07/03 09:32:14;;;;;;;3.1;2.8;;;;;;;30.08;34.29688;937.687;;;;
2021/07/03 09:34:39;;;;;;;3.1;2.8;;;;;;;30.04;33.95996;937.6373;;;;
2021/07/03 09:37:05;;;;;;;3.2;2.9;;;;;;;30.31;36.78613;937.6879;;;;
2021/07/03 09:39:31;;;;;;;3.4;2.9;;;;;;;30.71;34.38086;937.6014;;;;
2021/07/03 09:41:56;;;;;;;4;3.1;;;;;;;30.78;34.32715;937.5928;;;;
2021/07/03 09:44:23;;;;;;;3.2;2.8;;;;;;;30.66;36.51465;937.5672;;;;
2021/07/03 09:46:48;;;;;;;3.1;2.8;;;;;;;30.92;34.07324;937.6429;;;;
2021/07/03 09:49:13;;;;;;;5.6;3.8;;;;;;;29.38;38.09277;937.5646;;;;
2021/07/03 09:51:39;;;;;;;17.1;5.7;;;;;;;29.93;36.06348;937.6083;;;;
2021/07/03 09:54:04;;;;;;;5.1;3.2;;;;;;;30.59;37.94336;937.6429;;;;
2021/07/03 09:56:29;;;;;;;3.2;2.9;;;;;;;29.89;37.07324;937.5418;;;;
2021/07/03 09:58:54;;;;;;;3.6;3;;;;;;;29.05;38.43457;937.5203;;;;
2021/07/03 10:01:22;;;;;;;3.5;3.1;;;;;;;27.01;43.6875;937.4841;;;;
2021/07/03 10:03:47;;;;;;;5.3;3.6;;;;;;;27.6;41.68066;937.4554;;;;
2021/07/03 10:06:12;;;;;;;5.7;4;;;;;;;26.74;43.33105;937.5281;;;;
2021/07/03 10:08:37;;;;;;;4.5;3.3;;;;;;;26.83;43.6123;937.5364;;;;
2021/07/03 10:11:03;;;;;;;4.5;3;;;;;;;26.65;44.36426;937.5356;;;;
2021/07/03 10:13:28;;;;;;;5.2;3.4;;;;;;;26.17;46.10352;937.4985;;;;
2021/07/03 10:15:56;;;;;;;5.2;3.7;;;;;;;26.59;45.21094;937.5142;;;;
2021/07/03 10:18:27;;;;;;;3.7;3.3;;;;;;;25.95;46.12695;937.4796;;;;
2021/07/03 10:20:56;;;;;;;4.6;3.2;;;;;;;26.07;43.7627;937.4714;;;;
2021/07/03 10:23:22;;;;;;;4;3.4;;;;;;;25.8;46.07617;937.4188;;;;
2021/07/03 10:25:47;;;;;;;5.5;3.8;;;;;;;25.53;48.95508;937.359;;;;
2021/07/03 10:28:13;;;;;;;4.4;3.5;;;;;;;25.54;47.93945;937.3251;;;;
2021/07/03 10:30:40;;;;;;;5.5;3.2;;;;;;;25.18;49.14063;937.3056;;;;
2021/07/03 10:33:07;;;;;;;3.8;3.2;;;;;;;24.39;51.70605;937.3084;;;;
2021/07/03 10:35:41;;;;;;;3.6;3.2;;;;;;;24.08;49.49219;937.212;;;;
2021/07/03 10:38:05;;;;;;;5.4;3.7;;;;;;;24.6;51.10547;937.212;;;;
2021/07/03 10:40:30;;;;;;;3.8;3.4;;;;;;;24.15;52.1709;937.1774;;;;
2021/07/03 10:42:57;;;;;;;5.4;3.5;;;;;;;24.8;50.73828;937.1467;;;;
2021/07/03 10:45:23;;;;;;;4.1;3.6;;;;;;;25.32;47.61035;937.1601;;;;
2021/07/03 10:47:47;;;;;;;6.7;3.9;;;;;;;25.65;46.52246;937.16;;;;
2021/07/03 10:50:12;;;;;;;4.6;3.7;;;;;;;25.68;46.43066;937.1294;;;;
2021/07/03 10:52:37;;;;;;;4.4;3.4;;;;;;;25.93;44.36328;937.0474;;;;
2021/07/03 10:55:08;;;;;;;7.2;3.9;;;;;;;25.65;48.58984;937.0667;;;;
2021/07/03 10:57:33;;;;;;;5.3;3.3;;;;;;;25.56;46.57129;937.0867;;;;
2021/07/03 10:59:58;;;;;;;4.8;3.8;;;;;;;25.65;48.47168;937.0765;;;;
2021/07/03 11:02:26;;;;;;;6;3.7;;;;;;;25.93;47.18945;937.1136;;;;
2021/07/03 11:04:51;;;;;;;4.3;3.4;;;;;;;26.28;46.07813;937.0598;;;;
2021/07/03 11:07:16;;;;;;;4.9;3.6;;;;;;;26.11;45.30371;937.0756;;;;
2021/07/03 11:09:41;;;;;;;7.5;4.1;;;;;;;26.21;44.75879;937.0016;;;;
2021/07/03 11:12:08;;;;;;;6.6;3.4;;;;;;;26.13;44.80957;937.0095;;;;
2021/07/03 11:14:33;;;;;;;5.7;3.7;;;;;;;25.8;47.55469;936.9467;;;;
2021/07/03 11:16:59;;;;;;;4.8;3.8;;;;;;;26.23;45.18652;936.9437;;;;
2021/07/03 11:19:26;;;;;;;6.5;3.3;;;;;;;26.03;47.64941;936.9045;;;;
2021/07/03 11:21:51;;;;;;;4.1;3.4;;;;;;;26.07;46.89746;936.8492;;;;
2021/07/03 11:24:16;;;;;;;3.8;3.4;;;;;;;25.79;48.29785;936.8062;;;;
2021/07/03 11:26:41;;;;;;;3.6;3.3;;;;;;;25.59;46.48047;936.7858;;;;
2021/07/03 11:29:06;;;;;;;4.5;3.4;;;;;;;25.7;46.91797;936.7897;;;;
2021/07/03 11:31:32;;;;;;;3.5;3.2;;;;;;;25.87;48.44824;936.764;;;;
2021/07/03 11:33:57;;;;;;;3.7;3.3;;;;;;;26.11;45.54004;936.7163;;;;
2021/07/03 11:36:24;;;;;;;3.6;3.2;;;;;;;26.08;46.81543;936.66;;;;
2021/07/03 11:38:49;;;;;;;3.5;3.1;;;;;;;26.06;46.91895;936.6744;;;;
2021/07/03 11:41:14;;;;;;;4;3;;;;;;;26.27;45.95898;936.5878;;;;
2021/07/03 11:43:43;;;;;;;3.4;3.1;;;;;;;26.31;44.31836;936.6499;;;;
2021/07/03 11:46:10;;;;;;;4.5;3.6;;;;;;;26.26;42.81055;936.6968;;;;
2021/07/03 11:51:15;;;;;;;4.5;3.8;;;;;;;26.02;47.69629;936.5856;;;;
2021/07/03 11:53:41;;;;;;;3.7;3.2;;;;;;;26.02;46.82031;936.6189;;;;
2021/07/03 11:56:08;;;;;;;4.1;3.7;;;;;;;25.97;48.50586;936.5811;;;;
2021/07/03 11:58:41;;;;;;;4;3.5;;;;;;;25.73;49.05957;936.5198;;;;
2021/07/03 12:01:06;;;;;;;4.5;3.5;;;;;;;25.63;46.54395;936.5109;;;;
2021/07/03 12:03:31;;;;;;;3.8;3.3;;;;;;;25.99;46.19043;936.5059;;;;
2021/07/03 12:05:56;;;;;;;3.3;3;;;;;;;26.09;45.14844;936.4778;;;;
2021/07/03 12:08:21;;;;;;;3.5;3;;;;;;;26.29;45.64258;936.4989;;;;
2021/07/03 12:10:59;;;;;;;4.4;3.6;;;;;;;25.91;49.04395;936.532;;;;
2021/07/03 12:13:29;;;;;;;4.2;3.4;;;;;;;25.79;48.83008;936.4688;;;;
2021/07/03 12:16:05;;;;;;;5;3.5;;;;;;;25.32;51.08203;936.4893;;;;
2021/07/03 12:18:30;;;;;;;6.4;3.2;;;;;;;25.78;47.87207;936.4526;;;;
2021/07/03 12:20:58;;;;;;;3.8;3.4;;;;;;;26.28;45.28516;936.5122;;;;
2021/07/03 12:23:23;;;;;;;4;3.5;;;;;;;26.43;45.24121;936.4861;;;;
2021/07/03 12:25:51;;;;;;;3.9;3.3;;;;;;;26.57;43.8457;936.4397;;;;
2021/07/03 12:28:18;;;;;;;3.8;3.4;;;;;;;26.88;42.91699;936.3908;;;;
2021/07/03 12:30:46;;;;;;;4.4;3.5;;;;;;;26.64;44.71875;936.3883;;;;
2021/07/03 12:33:14;;;;;;;3.4;3.1;;;;;;;26.46;45.68359;936.3384;;;;
2021/07/03 12:35:39;;;;;;;5.5;3.2;;;;;;;26.43;44.24805;936.3719;;;;
2021/07/03 12:38:04;;;;;;;3.5;3.2;;;;;;;26.47;45.0332;936.2905;;;;
2021/07/03 12:40:37;;;;;;;4.6;3.4;;;;;;;26.09;46.55664;936.2321;;;;
2021/07/03 12:43:07;;;;;;;4.8;3.5;;;;;;;26.03;48.13477;936.3372;;;;
2021/07/03 12:45:32;;;;;;;4.1;3.6;;;;;;;25.95;46.8252;936.2701;;;;
2021/07/03 12:48:00;;;;;;;4.2;3.6;;;;;;;25.83;46.26855;936.2996;;;;
2021/07/03 12:50:26;;;;;;;3.8;3.4;;;;;;;25.78;46.83105;936.3077;;;;
2021/07/03 12:52:53;;;;;;;4.7;3.6;;;;;;;25.7;46.00684;936.2686;;;;
2021/07/03 12:55:18;;;;;;;4.3;3.5;;;;;;;25.91;45.95801;936.2863;;;;
2021/07/03 12:57:46;;;;;;;3.7;3.4;;;;;;;25.97;45.05273;936.2491;;;;
2021/07/03 13:00:11;;;;;;;3.6;3.2;;;;;;;26.14;45.87598;936.2505;;;;
2021/07/03 13:02:38;;;;;;;4;3.6;;;;;;;26.05;47.6748;936.2555;;;;
2021/07/03 13:05:02;;;;;;;6.1;4.1;;;;;;;25.71;51.17285;936.1783;;;;
2021/07/03 13:07:29;;;;;;;3.6;3.3;;;;;;;25.27;50.00195;936.1534;;;;
2021/07/03 13:10:38;;;;;;;3.7;3.3;;;;;;;25.28;49.60059;936.1099;;;;
2021/07/03 13:13:06;;;;;;;4.4;3.5;;;;;;;25.44;48.56641;936.0547;;;;
2021/07/03 13:15:50;;;;;;;4.7;3.5;;;;;;;25.15;50.12988;936.1317;;;;
2021/07/03 13:18:19;;;;;;;4.5;3.4;;;;;;;25.25;51.91113;936.0828;;;;
2021/07/03 13:20:50;;;;;;;4.1;3.4;;;;;;;25.79;49.07813;936.0739;;;;
2021/07/03 13:23:20;;;;;;;3.4;3.1;;;;;;;25.43;49.15723;936.0518;;;;
2021/07/03 13:25:50;;;;;;;4.4;3.4;;;;;;;25.49;48.46582;936.0033;;;;
2021/07/03 13:28:21;;;;;;;4.2;3.4;;;;;;;25.6;48.7373;936.1125;;;;
2021/07/03 13:30:53;;;;;;;4.1;3.7;;;;;;;25.65;47.05371;936.0374;;;;
2021/07/03 13:33:21;;;;;;;4.2;3.6;;;;;;;25.74;45.86914;936.0051;;;;
2021/07/03 13:35:46;;;;;;;4.5;3.4;;;;;;;26.05;45.88965;936.1014;;;;
2021/07/03 13:38:14;;;;;;;3.8;3.4;;;;;;;26.12;46.18066;936.0084;;;;
2021/07/03 13:40:39;;;;;;;4;3.2;;;;;;;26.11;47.11328;936.0452;;;;
2021/07/03 13:43:07;;;;;;;5;3.5;;;;;;;26.17;46.29297;936.0621;;;;
2021/07/03 13:45:32;;;;;;;6;3.6;;;;;;;26.11;45.74219;936.0931;;;;
2021/07/03 13:47:59;;;;;;;5.2;3.5;;;;;;;25.98;45.12598;936.1151;;;;
2021/07/03 13:50:24;;;;;;;5.3;3.4;;;;;;;25.79;46.75;936.05;;;;
2021/07/03 13:52:51;;;;;;;3.9;3.5;;;;;;;25.92;46.29004;936.0058;;;;
2021/07/03 13:55:16;;;;;;;4.4;3.5;;;;;;;25.79;46.25293;936.0754;;;;
2021/07/03 13:57:42;;;;;;;3.7;3.4;;;;;;;25.96;46.30664;936.0818;;;;
2021/07/03 14:00:07;;;;;;;3.8;3.2;;;;;;;25.76;45.59961;936.0696;;;;
2021/07/03 14:02:32;;;;;;;4.3;3.4;;;;;;;25.53;45.5293;936.0311;;;;
2021/07/03 14:04:59;;;;;;;5.4;3.7;;;;;;;25.77;46.4873;936.0652;;;;
2021/07/03 14:07:24;;;;;;;3.8;3.4;;;;;;;25.93;46.01855;936.0594;;;;
2021/07/03 14:09:52;;;;;;;3.4;3.1;;;;;;;25.83;46.3291;936;;;;
2021/07/03 14:12:17;;;;;;;3.6;3.2;;;;;;;25.69;47.82617;935.8981;;;;
2021/07/03 14:14:45;;;;;;;3.6;3.2;;;;;;;25.43;48.4707;935.8538;;;;
2021/07/03 14:17:10;;;;;;;3.9;3.5;;;;;;;25.34;49.92578;935.9391;;;;
2021/07/03 14:19:39;;;;;;;4.1;3.1;;;;;;;25.63;47.53613;935.9618;;;;
2021/07/03 14:22:05;;;;;;;3.8;3.4;;;;;;;25.35;46.66797;935.9467;;;;
2021/07/03 14:24:33;;;;;;;3.8;3.2;;;;;;;25.61;47.62891;935.9326;;;;
2021/07/03 14:26:58;;;;;;;4.6;3.3;;;;;;;25.68;45.875;935.8204;;;;
2021/07/03 14:29:28;;;;;;;3.5;3.2;;;;;;;25.83;46.48242;935.8531;;;;
2021/07/03 14:31:57;;;;;;;3.9;3.1;;;;;;;25.93;46.09082;935.8867;;;;
2021/07/03 14:34:22;;;;;;;3.6;3.3;;;;;;;26.04;45.66309;935.8644;;;;
2021/07/03 14:36:48;;;;;;;4.2;3.4;;;;;;;25.9;46.07422;935.8374;;;;
2021/07/03 14:39:13;;;;;;;4.5;3.2;;;;;;;25.81;45.93652;935.8147;;;;
2021/07/03 14:41:40;;;;;;;3.6;3.2;;;;;;;25.89;47.32813;935.8125;;;;
2021/07/03 14:44:05;;;;;;;4;3.4;;;;;;;26.01;46.00391;935.8173;;;;
2021/07/03 14:46:33;;;;;;;5.3;3.3;;;;;;;26.1;45.55176;935.7327;;;;
2021/07/03 14:48:58;;;;;;;3.5;3.2;;;;;;;26.06;45.91406;935.8192;;;;
2021/07/03 14:51:23;;;;;;;3.5;3;;;;;;;26.12;45.6123;935.7822;;;;
2021/07/03 14:53:48;;;;;;;4.4;3.6;;;;;;;26.39;46.49219;935.7943;;;;
2021/07/03 14:56:15;;;;;;;3.4;3.1;;;;;;;26.3;46.99219;935.8044;;;;
2021/07/03 14:58:40;;;;;;;4;3.2;;;;;;;26.48;44.25293;935.8427;;;;
2021/07/03 15:01:09;;;;;;;3.7;3;;;;;;;26.57;45.00684;935.796;;;;
2021/07/03 15:03:37;;;;;;;3;2.8;;;;;;;26.77;44.63672;935.769;;;;
2021/07/03 15:06:02;;;;;;;4.8;3.4;;;;;;;26.72;44.82129;935.7606;;;;
2021/07/03 15:08:28;;;;;;;5.5;3.1;;;;;;;26.14;45.1416;935.7536;;;;
2021/07/03 15:10:53;;;;;;;3.9;3.5;;;;;;;26.1;44.27441;935.7719;;;;
2021/07/03 15:13:21;;;;;;;4.2;3.4;;;;;;;25.83;46.54102;935.7095;;;;
2021/07/03 15:15:50;;;;;;;4;3.3;;;;;;;25.69;46.15918;935.6606;;;;
2021/07/03 15:18:15;;;;;;;3.4;3.1;;;;;;;25.61;45.99805;935.6563;;;;
2021/07/03 15:20:47;;;;;;;4.8;3.7;;;;;;;25.47;47.03613;935.6567;;;;